createdAt,value
2023-04-01T00:01:09.680Z,99037.13
2023-04-01T00:03:37.209Z,99036.03
2023-04-01T00:06:06.570Z,99043.97
2023-04-01T00:08:33.696Z,99055.81
2023-04-01T00:11:02.727Z,99053.16
2023-04-01T00:13:29.547Z,99059.16
2023-04-01T00:15:57.742Z,99060.81
2023-04-01T00:18:26.815Z,99053.38
2023-04-01T00:20:55.982Z,99061.25
2023-04-01T00:23:23.681Z,99055.34
2023-04-01T00:25:52.949Z,99067.19
2023-04-01T00:28:21.439Z,99072.72
2023-04-01T00:30:49.520Z,99070.38
2023-04-01T00:33:18.496Z,99069.19
2023-04-01T00:35:46.063Z,99079.81
2023-04-01T00:38:14.792Z,99071.59
2023-04-01T00:40:44.374Z,99077.47
2023-04-01T00:43:20.800Z,99082.56
2023-04-01T00:45:52.767Z,99088.13
2023-04-01T00:48:28.931Z,99092.81
2023-04-01T00:51:09.423Z,99192.84
2023-04-01T00:53:39.845Z,99206.25
2023-04-01T00:56:21.505Z,99218.44
2023-04-01T00:58:52.866Z,99222.03
2023-04-01T01:01:22.520Z,99233.81
2023-04-01T01:03:49.235Z,99238.13
2023-04-01T01:06:27.731Z,99233.88
2023-04-01T01:09:00.597Z,99243.72
2023-04-01T01:11:43.284Z,99246.44
2023-04-01T01:14:41.386Z,99248.81
2023-04-01T01:17:26.053Z,99251.59
2023-04-01T01:20:26.369Z,99257.50
2023-04-01T01:22:53.486Z,99268.53
2023-04-01T01:25:35.199Z,99273.25
2023-04-01T01:28:09.601Z,99277.16
2023-04-01T01:30:46.958Z,99280.72
2023-04-01T01:33:34.323Z,99283.47
2023-04-01T01:36:06.154Z,99279.56
2023-04-01T01:38:36.313Z,99274.03
2023-04-01T01:41:05.520Z,99282.69
2023-04-01T01:43:37.273Z,99292.13
2023-04-01T01:46:11.283Z,99289.00
2023-04-01T01:48:40.863Z,99271.03
2023-04-01T01:51:08.198Z,99302.00
2023-04-01T01:53:35.391Z,99391.03
2023-04-01T01:56:02.631Z,99388.69
2023-04-01T01:58:33.673Z,99418.16
2023-04-01T02:01:06.722Z,99435.47
2023-04-01T02:03:37.579Z,99405.59
2023-04-01T02:06:08.695Z,99417.78
2023-04-01T02:08:41.429Z,99415.03
2023-04-01T02:11:11.582Z,99439.03
2023-04-01T02:13:59.780Z,99464.56
2023-04-01T02:16:37.268Z,99477.19
2023-04-01T02:19:08.464Z,99468.94
2023-04-01T02:21:37.569Z,99463.06
2023-04-01T02:24:09.390Z,99601.53
2023-04-01T02:26:36.631Z,99633.84
2023-04-01T02:29:06.021Z,99640.13
2023-04-01T02:31:33.572Z,99659.00
2023-04-01T02:34:00.585Z,99646.41
2023-04-01T02:36:27.599Z,99647.19
2023-04-01T02:38:57.003Z,99655.84
2023-04-01T02:41:23.626Z,99637.75
2023-04-01T02:43:50.774Z,99655.47
2023-04-01T02:46:17.576Z,99657.81
2023-04-01T02:48:44.231Z,99652.69
2023-04-01T02:51:11.101Z,99662.91
2023-04-01T02:53:37.774Z,99672.38
2023-04-01T02:56:04.662Z,99659.00
2023-04-01T02:58:31.517Z,99669.59
2023-04-01T03:00:58.305Z,99677.09
2023-04-01T03:03:26.207Z,99674.34
2023-04-01T03:05:52.899Z,99681.03
2023-04-01T03:08:19.655Z,99681.03
2023-04-01T03:10:46.447Z,99681.03
2023-04-01T03:13:12.977Z,99691.63
2023-04-01T03:15:39.728Z,99681.03
2023-04-01T03:18:06.409Z,99672.34
2023-04-01T03:20:33.212Z,99695.97
2023-04-01T03:23:00.140Z,99695.56
2023-04-01T03:25:27.946Z,99690.44
2023-04-01T03:27:55.030Z,99693.59
2023-04-01T03:30:21.715Z,99682.53
2023-04-01T03:32:48.597Z,99712.47
2023-04-01T03:35:15.881Z,99724.28
2023-04-01T03:37:42.681Z,99690.44
2023-04-01T03:40:10.079Z,99703.84
2023-04-01T03:42:37.078Z,99690.44
2023-04-01T03:45:05.327Z,99688.88
2023-04-01T03:47:32.781Z,99677.09
2023-04-01T03:49:59.545Z,99678.25
2023-04-01T03:52:26.431Z,99664.88
2023-04-01T03:54:53.319Z,99640.50
2023-04-01T03:57:20.296Z,99450.50
2023-04-01T03:59:47.092Z,99446.56
2023-04-01T04:02:14.139Z,99443.41
2023-04-01T04:04:40.994Z,99443.41
2023-04-01T04:07:08.296Z,99444.19
2023-04-01T04:09:35.084Z,99439.88
2023-04-01T04:12:02.665Z,99452.06
2023-04-01T04:14:29.355Z,99443.44
2023-04-01T04:16:56.136Z,99432.81
2023-04-01T04:19:22.938Z,99462.31
2023-04-01T04:21:49.603Z,99461.50
2023-04-01T04:24:16.362Z,99467.81
2023-04-01T04:26:43.108Z,99479.19
2023-04-01T04:29:09.740Z,99476.44
2023-04-01T04:31:36.514Z,99464.28
2023-04-01T04:34:03.192Z,99482.75
2023-04-01T04:36:29.909Z,99492.97
2023-04-01T04:38:57.632Z,99478.84
2023-04-01T04:41:24.532Z,99498.47
2023-04-01T04:43:56.337Z,99503.22
2023-04-01T04:46:23.837Z,99497.69
2023-04-01T04:48:50.740Z,99485.13
2023-04-01T04:51:19.264Z,99486.69
2023-04-01T04:53:46.730Z,99518.16
2023-04-01T04:56:13.522Z,99489.47
2023-04-01T04:58:40.694Z,99516.59
2023-04-01T05:01:09.819Z,99509.50
2023-04-01T05:03:36.489Z,99509.09
2023-04-01T05:06:03.574Z,99540.59
2023-04-01T05:08:30.351Z,99543.34
2023-04-01T05:10:58.210Z,99550.00
2023-04-01T05:13:25.050Z,99550.00
2023-04-01T05:15:52.189Z,99549.22
2023-04-01T05:18:18.982Z,99550.41
2023-04-01T05:20:54.332Z,99554.72
2023-04-01T05:23:23.000Z,99554.75
2023-04-01T05:25:52.353Z,99561.41
2023-04-01T05:28:20.072Z,99563.78
2023-04-01T05:30:47.080Z,99567.72
2023-04-01T05:33:14.133Z,99552.75
2023-04-01T05:35:41.766Z,99572.03
2023-04-01T05:38:08.701Z,99568.13
2023-04-01T05:40:35.560Z,99596.06
2023-04-01T05:43:02.272Z,99605.50
2023-04-01T05:45:29.058Z,99605.50
2023-04-01T05:47:55.807Z,100282.44
2023-04-01T05:50:23.041Z,100341.47
2023-04-01T05:52:49.722Z,100378.88
2023-04-01T05:55:16.444Z,100387.06
2023-04-01T05:57:43.139Z,100399.53
2023-04-01T06:00:10.518Z,100449.47
2023-04-01T06:02:38.754Z,100471.81
2023-04-01T06:05:25.078Z,100481.69
2023-04-01T06:08:02.135Z,100504.78
2023-04-01T06:11:04.680Z,100543.16
2023-04-01T06:14:01.395Z,100564.41
2023-04-01T06:17:13.014Z,100581.69
2023-04-01T06:19:42.330Z,100624.19
2023-04-01T06:22:28.114Z,100641.94
2023-04-01T06:25:08.377Z,100628.19
2023-04-01T06:27:51.149Z,100685.63
2023-04-01T06:30:30.047Z,100709.31
2023-04-01T06:32:59.450Z,100726.94
2023-04-01T06:35:32.715Z,100743.03
2023-04-01T06:38:21.859Z,100730.03
2023-04-01T06:41:12.769Z,100775.66
2023-04-01T06:44:07.117Z,100770.81
2023-04-01T06:46:55.031Z,100799.75
2023-04-01T06:49:45.982Z,100797.44
2023-04-01T06:52:43.099Z,100812.66
2023-04-01T06:55:25.463Z,100819.03
2023-04-01T06:57:56.343Z,100837.91
2023-04-01T07:00:44.461Z,100842.19
2023-04-01T07:03:27.416Z,100858.44
2023-04-01T07:05:57.857Z,100876.91
2023-04-01T07:08:29.184Z,100918.69
2023-04-01T07:11:02.945Z,100942.50
2023-04-01T07:13:56.183Z,100931.03
2023-04-01T07:16:31.154Z,100950.56
2023-04-01T07:19:29.987Z,100989.38
2023-04-01T07:22:03.083Z,100975.91
2023-04-01T07:24:38.837Z,101008.66
2023-04-01T07:27:10.913Z,101012.63
2023-04-01T07:29:37.746Z,101006.81
2023-04-01T07:32:20.203Z,101014.28
2023-04-01T07:35:05.538Z,101040.63
2023-04-01T07:37:44.362Z,101053.56
2023-04-01T07:40:38.297Z,101062.63
2023-04-01T07:43:52.475Z,101065.22
2023-04-01T07:47:00.502Z,101070.88
2023-04-01T07:49:53.163Z,101072.94
2023-04-01T07:52:48.904Z,101075.75
2023-04-01T07:55:23.418Z,101086.94
2023-04-01T07:58:09.079Z,101092.06
2023-04-01T08:01:02.807Z,101095.78
2023-04-01T08:04:05.032Z,101094.28
2023-04-01T08:06:44.491Z,101112.41
2023-04-01T08:09:32.661Z,101120.13
2023-04-01T08:12:13.083Z,101121.63
2023-04-01T08:15:05.613Z,101118.09
2023-04-01T08:17:53.062Z,101125.47
2023-04-01T08:20:38.439Z,101120.22
2023-04-01T08:23:28.674Z,101142.53
2023-04-01T08:26:03.720Z,101117.94
2023-04-01T08:28:46.403Z,101102.72
2023-04-01T08:31:50.611Z,101146.81
2023-04-01T08:34:23.578Z,101145.22
2023-04-01T08:37:01.991Z,101140.69
2023-04-01T08:39:35.236Z,101146.72
2023-04-01T08:42:26.801Z,101147.63
2023-04-01T08:45:14.295Z,101154.28
2023-04-01T08:47:56.611Z,101134.84
2023-04-01T08:50:26.240Z,101161.22
2023-04-01T08:53:07.515Z,101156.25
2023-04-01T08:55:58.248Z,101150.19
2023-04-01T08:58:56.141Z,101160.84
2023-04-01T09:01:33.476Z,101173.06
2023-04-01T09:04:09.230Z,101148.16
2023-04-01T09:07:06.751Z,101180.16
2023-04-01T09:09:57.334Z,101173.66
2023-04-01T09:12:57.821Z,101157.13
2023-04-01T09:15:27.118Z,101178.03
2023-04-01T09:18:35.168Z,101184.25
2023-04-01T09:21:26.014Z,101189.25
2023-04-01T09:23:58.703Z,101191.00
2023-04-01T09:26:29.227Z,101198.34
2023-04-01T09:29:17.596Z,101198.22
2023-04-01T09:32:16.116Z,101194.84
2023-04-01T09:35:20.337Z,101201.16
2023-04-01T09:37:48.047Z,101207.38
2023-04-01T09:40:33.455Z,101212.78
2023-04-01T09:43:08.843Z,101201.81
2023-04-01T09:45:49.625Z,101199.38
2023-04-01T09:48:51.629Z,101201.22
2023-04-01T09:51:26.951Z,101200.88
2023-04-01T09:54:14.884Z,101198.97
2023-04-01T09:57:18.696Z,101208.63
2023-04-01T10:00:00.276Z,101213.78
2023-04-01T10:02:29.807Z,101200.72
2023-04-01T10:05:29.526Z,101213.25
2023-04-01T10:08:06.566Z,101197.97
2023-04-01T10:10:36.416Z,101200.16
2023-04-01T10:13:33.800Z,101183.81
2023-04-01T10:16:19.896Z,101196.63
2023-04-01T10:19:16.548Z,101191.00
2023-04-01T10:22:02.269Z,101188.00
2023-04-01T10:24:49.027Z,101195.66
2023-04-01T10:27:15.868Z,101165.22
2023-04-01T10:29:57.871Z,101179.59
2023-04-01T10:32:39.181Z,101181.31
2023-04-01T10:35:26.198Z,101157.47
2023-04-01T10:38:21.170Z,101178.25
2023-04-01T10:41:34.315Z,101158.63
2023-04-01T10:44:28.508Z,101153.56
2023-04-01T10:47:20.699Z,101151.88
2023-04-01T10:50:18.602Z,101140.91
2023-04-01T10:53:11.300Z,101159.78
2023-04-01T10:56:03.106Z,101163.31
2023-04-01T10:58:48.773Z,101161.41
2023-04-01T11:01:36.812Z,101162.47
2023-04-01T11:04:32.663Z,101160.03
2023-04-01T11:07:35.697Z,101154.03
2023-04-01T11:10:37.909Z,101156.47
2023-04-01T11:13:17.411Z,101142.28
2023-04-01T11:16:03.067Z,101135.31
2023-04-01T11:18:32.762Z,101114.84
2023-04-01T11:21:20.439Z,101115.06
2023-04-01T11:24:10.445Z,101110.75
2023-04-01T11:26:53.751Z,101097.41
2023-04-01T11:29:58.725Z,101080.28
2023-04-01T11:32:34.343Z,101067.78
2023-04-01T11:35:20.140Z,101059.88
2023-04-01T11:38:08.574Z,101046.94
2023-04-01T11:41:00.111Z,101038.47
2023-04-01T11:43:47.705Z,101012.50
2023-04-01T11:46:45.997Z,101009.19
2023-04-01T11:49:30.853Z,100970.66
2023-04-01T11:52:15.711Z,100997.88
2023-04-01T11:54:57.803Z,100975.34
2023-04-01T11:57:42.906Z,101008.03
2023-04-01T12:00:46.233Z,101005.41
2023-04-01T12:03:50.766Z,100992.69
2023-04-01T12:06:29.351Z,100973.50
2023-04-01T12:09:05.037Z,100952.47
2023-04-01T12:11:47.193Z,100933.72
2023-04-01T12:14:43.850Z,100913.09
2023-04-01T12:17:19.411Z,100902.56
2023-04-01T12:20:07.046Z,100882.53
2023-04-01T12:22:58.363Z,100852.41
2023-04-01T12:26:02.115Z,100847.09
2023-04-01T12:28:50.452Z,100821.13
2023-04-01T12:31:20.740Z,100805.97
2023-04-01T12:34:02.512Z,100789.72
2023-04-01T12:36:54.360Z,100783.16
2023-04-01T12:39:53.166Z,100765.56
2023-04-01T12:42:38.068Z,100753.38
2023-04-01T12:45:35.594Z,100742.72
2023-04-01T12:48:35.112Z,100719.16
2023-04-01T12:51:29.010Z,100718.66
2023-04-01T12:54:14.335Z,100695.31
2023-04-01T12:56:59.748Z,100683.34
2023-04-01T12:59:35.201Z,100679.66
2023-04-01T13:02:06.557Z,100658.41
2023-04-01T13:04:43.381Z,100642.66
2023-04-01T13:07:42.824Z,100642.41
2023-04-01T13:10:29.023Z,100630.25
2023-04-01T13:13:16.756Z,100623.53
2023-04-01T13:15:53.575Z,100609.66
2023-04-01T13:18:32.947Z,100601.78
2023-04-01T13:21:28.826Z,100584.72
2023-04-01T13:24:22.947Z,100587.34
2023-04-01T13:27:08.725Z,100584.84
2023-04-01T13:29:44.248Z,100583.66
2023-04-01T13:32:43.797Z,100580.41
2023-04-01T13:35:26.769Z,100584.00
2023-04-01T13:38:12.179Z,100587.88
2023-04-01T13:41:07.416Z,100578.44
2023-04-01T13:43:43.336Z,100588.25
2023-04-01T13:46:21.555Z,100589.75
2023-04-01T13:49:13.360Z,100587.09
2023-04-01T13:52:16.311Z,100595.34
2023-04-01T13:54:54.263Z,100599.38
2023-04-01T13:57:56.101Z,100600.09
2023-04-01T14:00:44.975Z,100596.69
2023-04-01T14:03:41.903Z,100605.84
2023-04-01T14:06:19.156Z,100610.94
2023-04-01T14:08:58.034Z,100621.91
2023-04-01T14:11:33.963Z,100625.31
2023-04-01T14:14:22.373Z,100647.25
2023-04-01T14:17:02.542Z,100633.28
2023-04-01T14:20:04.170Z,100658.16
2023-04-01T14:23:02.115Z,100662.56
2023-04-01T14:25:47.220Z,100662.78
2023-04-01T14:28:22.845Z,100679.44
2023-04-01T14:30:52.231Z,100680.88
2023-04-01T14:33:29.936Z,100673.75
2023-04-01T14:36:25.845Z,100699.91
2023-04-01T14:39:09.228Z,100702.13
2023-04-01T14:41:54.441Z,100709.38
2023-04-01T14:44:30.044Z,100717.50
2023-04-01T14:47:13.007Z,100717.56
2023-04-01T14:49:47.357Z,100724.41
2023-04-01T14:52:23.138Z,100725.03
2023-04-01T14:54:53.638Z,100736.50
2023-04-01T14:57:31.592Z,100729.72
2023-04-01T15:00:13.898Z,100739.16
2023-04-01T15:03:14.811Z,100738.34
2023-04-01T15:05:52.722Z,100740.00
2023-04-01T15:08:27.803Z,100745.53
2023-04-01T15:11:06.525Z,100746.25
2023-04-01T15:13:58.245Z,100765.97
2023-04-01T15:16:24.824Z,100776.22
2023-04-01T15:19:12.546Z,100781.50
2023-04-01T15:21:48.552Z,100775.97
2023-04-01T15:24:26.142Z,100786.31
2023-04-01T15:27:04.284Z,100790.16
2023-04-01T15:29:37.055Z,100787.75
2023-04-01T15:32:15.635Z,100799.06
2023-04-01T15:35:23.760Z,100790.06
2023-04-01T15:37:58.261Z,100813.56
2023-04-01T15:40:42.062Z,100815.03
2023-04-01T15:43:43.356Z,100812.28
2023-04-01T15:46:37.332Z,100821.69
2023-04-01T15:49:21.180Z,100818.81
2023-04-01T15:51:58.312Z,100827.69
2023-04-01T15:54:46.202Z,100833.22
2023-04-01T15:57:47.494Z,100837.75
2023-04-01T16:00:36.307Z,100841.19
2023-04-01T16:03:18.142Z,100848.53
2023-04-01T16:06:09.765Z,100855.34
2023-04-01T16:08:57.966Z,100859.00
2023-04-01T16:11:44.438Z,100875.72
2023-04-01T16:14:29.543Z,100881.81
2023-04-01T16:17:14.710Z,100856.31
2023-04-01T16:19:46.993Z,100890.19
2023-04-01T16:22:32.323Z,100901.88
2023-04-01T16:25:30.140Z,100901.88
2023-04-01T16:28:21.353Z,100907.69
2023-04-01T16:31:35.928Z,100928.16
2023-04-01T16:34:30.674Z,100929.53
2023-04-01T16:37:09.224Z,100939.91
2023-04-01T16:39:47.662Z,100903.38
2023-04-01T16:42:33.433Z,100952.53
2023-04-01T16:45:09.097Z,100969.13
2023-04-01T16:47:49.995Z,100978.72
2023-04-01T16:50:24.310Z,100960.50
2023-04-01T16:53:12.480Z,101000.84
2023-04-01T16:56:03.622Z,101013.34
2023-04-01T16:58:41.976Z,101025.81
2023-04-01T17:01:25.809Z,101038.09
2023-04-01T17:03:58.676Z,101046.00
2023-04-01T17:06:46.734Z,101051.22
2023-04-01T17:09:19.547Z,101067.78
2023-04-01T17:12:09.685Z,101082.00
2023-04-01T17:14:55.610Z,101100.75
2023-04-01T17:17:36.060Z,101105.09
2023-04-01T17:20:17.422Z,101117.75
2023-04-01T17:22:50.064Z,101127.25
2023-04-01T17:25:19.420Z,101149.25
2023-04-01T17:27:55.052Z,101169.78
2023-04-01T17:30:40.668Z,101186.34
2023-04-01T17:33:36.024Z,101223.69
2023-04-01T17:36:30.601Z,101227.78
2023-04-01T17:39:31.220Z,101255.53
2023-04-01T17:42:11.047Z,101263.72
2023-04-01T17:44:50.752Z,101267.38
2023-04-01T17:47:17.364Z,101279.03
2023-04-01T17:50:08.379Z,101284.66
2023-04-01T17:52:46.631Z,101276.13
2023-04-01T17:55:47.682Z,101293.31
2023-04-01T17:58:58.277Z,101276.34
2023-04-01T18:01:28.451Z,101308.00
2023-04-01T18:03:55.310Z,101317.81
2023-04-01T18:06:24.931Z,101319.31
2023-04-01T18:08:58.634Z,101315.47
2023-04-01T18:11:46.817Z,101336.22
2023-04-01T18:14:41.353Z,101350.19
2023-04-01T18:17:26.610Z,101349.50
2023-04-01T18:20:42.413Z,101358.47
2023-04-01T18:23:42.803Z,101360.97
2023-04-01T18:26:35.366Z,101364.44
2023-04-01T18:29:20.732Z,101369.94
2023-04-01T18:31:54.482Z,101354.72
2023-04-01T18:34:57.656Z,101378.69
2023-04-01T18:37:27.224Z,101382.59
2023-04-01T18:40:22.915Z,101382.59
2023-04-01T18:43:06.590Z,101381.69
2023-04-01T18:45:47.826Z,101372.34
2023-04-01T18:48:45.589Z,101372.06
2023-04-01T18:51:24.204Z,101383.09
2023-04-01T18:53:58.818Z,101388.19
2023-04-01T18:56:36.469Z,101387.63
2023-04-01T18:59:21.663Z,101382.59
2023-04-01T19:02:29.989Z,101383.63
2023-04-01T19:05:19.547Z,101387.38
2023-04-01T19:07:55.030Z,101380.81
2023-04-01T19:10:48.035Z,101403.91
2023-04-01T19:13:50.043Z,101403.22
2023-04-01T19:16:47.579Z,101408.97
2023-04-01T19:19:32.674Z,101426.44
2023-04-01T19:22:18.170Z,101437.47
2023-04-01T19:25:10.495Z,101416.41
2023-04-01T19:27:49.904Z,101455.06
2023-04-01T19:30:29.005Z,101455.75
2023-04-01T19:33:23.248Z,101458.78
2023-04-01T19:36:03.727Z,101465.31
2023-04-01T19:38:44.169Z,101465.22
2023-04-01T19:41:31.937Z,101486.69
2023-04-01T19:44:17.751Z,101487.13
2023-04-01T19:46:50.865Z,101481.06
2023-04-01T19:49:38.815Z,101489.22
2023-04-01T19:52:42.093Z,101490.38
2023-04-01T19:55:29.673Z,101503.59
2023-04-01T19:58:31.467Z,101502.31
2023-04-01T20:01:01.377Z,101501.19
2023-04-01T20:03:37.352Z,101514.72
2023-04-01T20:06:14.774Z,101533.69
2023-04-01T20:08:56.603Z,101523.25
2023-04-01T20:11:38.188Z,101539.66
2023-04-01T20:14:31.087Z,101552.41
2023-04-01T20:17:19.056Z,101549.53
2023-04-01T20:20:11.027Z,101559.75
2023-04-01T20:22:46.883Z,101556.53
2023-04-01T20:25:35.154Z,101568.94
2023-04-01T20:28:11.272Z,101522.09
2023-04-01T20:30:37.925Z,101548.38
2023-04-01T20:33:20.426Z,101573.97
2023-04-01T20:36:24.429Z,101572.59
2023-04-01T20:38:56.871Z,101555.75
2023-04-01T20:41:23.543Z,101580.88
2023-04-01T20:44:02.736Z,101582.50
2023-04-01T20:46:57.777Z,101575.13
2023-04-01T20:49:27.554Z,101584.09
2023-04-01T20:51:55.741Z,101588.44
2023-04-01T20:54:47.713Z,101591.91
2023-04-01T20:57:22.186Z,101587.31
2023-04-01T21:00:10.671Z,101590.06
2023-04-01T21:02:52.755Z,101585.47
2023-04-01T21:05:51.792Z,101584.75
2023-04-01T21:08:32.028Z,101576.06
2023-04-01T21:11:20.697Z,101561.00
2023-04-01T21:13:53.688Z,101586.41
2023-04-01T21:16:52.804Z,101590.06
2023-04-01T21:19:34.592Z,101586.84
2023-04-01T21:22:20.522Z,101583.84
2023-04-01T21:25:24.744Z,101581.53
2023-04-01T21:28:01.121Z,101573.50
2023-04-01T21:30:45.508Z,101574.75
2023-04-01T21:33:12.106Z,101575.56
2023-04-01T21:35:57.721Z,101557.16
2023-04-01T21:38:43.257Z,101578.72
2023-04-01T21:41:26.747Z,101574.63
2023-04-01T21:44:12.063Z,101575.06
2023-04-01T21:46:38.893Z,101578.16
2023-04-01T21:49:08.612Z,101568.63
2023-04-01T21:52:13.859Z,101558.31
2023-04-01T21:54:44.260Z,101554.97
2023-04-01T21:57:29.431Z,101564.00
2023-04-01T22:00:32.914Z,101552.75
2023-04-01T22:03:26.274Z,101557.25
2023-04-01T22:06:07.409Z,101537.47
2023-04-01T22:08:49.233Z,101553.78
2023-04-01T22:11:36.199Z,73622.03
2023-04-01T22:14:11.037Z,73622.03
2023-04-01T22:16:40.874Z,73622.03
2023-04-01T22:19:21.000Z,73622.03
2023-04-01T22:22:22.564Z,73622.03
2023-04-01T22:25:11.284Z,73622.03
2023-04-01T22:27:53.559Z,73622.03
2023-04-01T22:30:43.566Z,73622.03
2023-04-01T22:33:28.852Z,73622.03
2023-04-01T22:36:07.008Z,73622.03
2023-04-01T22:39:11.184Z,73622.03
2023-04-01T22:41:52.827Z,73622.03
2023-04-01T22:44:31.711Z,73622.03
2023-04-01T22:47:08.059Z,73622.03
2023-04-01T22:49:49.465Z,73622.03
2023-04-01T22:52:42.143Z,73622.03
2023-04-01T22:55:19.462Z,73622.03
2023-04-01T22:57:51.896Z,73622.03
2023-04-01T23:00:29.242Z,73622.03
2023-04-01T23:03:17.598Z,73622.03
2023-04-01T23:05:53.462Z,73622.03
2023-04-01T23:08:49.523Z,73622.03
2023-04-01T23:11:21.425Z,73622.03
2023-04-01T23:14:14.676Z,73622.03
2023-04-01T23:16:46.840Z,73622.03
2023-04-01T23:19:29.576Z,73622.03
2023-04-01T23:22:11.737Z,73622.03
2023-04-01T23:25:25.883Z,73622.03
2023-04-01T23:28:14.865Z,73622.03
2023-04-01T23:30:41.586Z,73622.03
2023-04-01T23:33:12.781Z,73622.03
2023-04-01T23:36:13.661Z,73622.03
2023-04-01T23:38:42.977Z,73622.03
2023-04-01T23:41:29.144Z,73622.03
2023-04-01T23:44:01.867Z,73622.03
2023-04-01T23:46:31.726Z,73622.03
2023-04-01T23:48:58.877Z,73622.03
2023-04-01T23:51:37.466Z,73622.03
2023-04-01T23:54:29.610Z,73622.03
2023-04-01T23:56:57.641Z,73622.03
2023-04-01T23:59:33.263Z,73622.03
